createdAt,value
2018-04-17T00:00:23.629Z,25.7
2018-04-17T00:01:12.548Z,25.7
2018-04-17T00:02:03.497Z,25.7
2018-04-17T00:02:52.701Z,25.7
2018-04-17T00:03:42.823Z,25.6
2018-04-17T00:04:32.782Z,25.6
2018-04-17T00:05:23.424Z,25.6
2018-04-17T00:06:12.144Z,25.6
2018-04-17T00:07:02.581Z,25.6
2018-04-17T00:07:52.544Z,25.6
2018-04-17T00:08:42.046Z,25.6
2018-04-17T00:09:32.694Z,25.6
2018-04-17T00:10:23.035Z,25.5
2018-04-17T00:11:13.184Z,25.5
2018-04-17T00:12:03.688Z,25.5
2018-04-17T00:12:53.035Z,25.5
2018-04-17T00:13:43.608Z,25.4
2018-04-17T00:14:33.133Z,25.4
2018-04-17T00:15:22.946Z,25.4
2018-04-17T00:16:13.680Z,25.4
2018-04-17T00:17:04.099Z,25.4
2018-04-17T00:17:54.173Z,25.4
2018-04-17T00:18:43.878Z,25.4
2018-04-17T00:19:34.545Z,25.4
2018-04-17T00:20:24.863Z,25.3
2018-04-17T00:21:14.941Z,25.3
2018-04-17T00:22:04.178Z,25.3
2018-04-17T00:22:54.292Z,25.3
2018-04-17T00:23:45.071Z,25.3
2018-04-17T00:24:34.565Z,25.3
2018-04-17T00:25:24.648Z,25.3
2018-04-17T00:26:15.605Z,25.3
2018-04-17T00:27:04.834Z,25.3
2018-04-17T00:27:54.518Z,25.2
2018-04-17T00:28:44.921Z,25.2
2018-04-17T00:29:35.267Z,25.1
2018-04-17T00:30:25.326Z,25.1
2018-04-17T00:31:14.484Z,25.1
2018-04-17T00:32:04.377Z,25.1
2018-04-17T00:32:54.727Z,25.1
2018-04-17T00:33:45.176Z,25.1
2018-04-17T00:34:35.158Z,25.1
2018-04-17T00:35:25.216Z,25.1
2018-04-17T00:36:15.322Z,25.1
2018-04-17T00:37:05.339Z,25
2018-04-17T00:37:56.181Z,25
2018-04-17T00:38:45.974Z,25
2018-04-17T00:39:35.154Z,25
2018-04-17T00:40:26.332Z,25
2018-04-17T00:41:16.168Z,25
2018-04-17T00:42:06.199Z,24.9
2018-04-17T00:42:55.408Z,24.9
2018-04-17T00:43:46.841Z,24.9
2018-04-17T00:44:36.090Z,24.9
2018-04-17T00:45:26.661Z,24.9
2018-04-17T00:46:16.809Z,24.9
2018-04-17T00:47:06.537Z,24.9
2018-04-17T00:47:56.599Z,24.8
2018-04-17T00:48:46.671Z,24.9
2018-04-17T00:49:37.027Z,24.8
2018-04-17T00:50:25.944Z,24.8
2018-04-17T00:51:16.329Z,24.8
2018-04-17T00:52:07.226Z,24.8
2018-04-17T00:52:56.813Z,24.8
2018-04-17T00:53:47.675Z,24.8
2018-04-17T00:54:35.454Z,24.8
2018-04-17T00:55:27.514Z,24.8
2018-04-17T00:56:17.235Z,24.8
2018-04-17T00:57:06.780Z,24.7
2018-04-17T00:57:56.844Z,24.7
2018-04-17T00:58:46.353Z,24.7
2018-04-17T00:59:37.520Z,24.7
2018-04-17T01:00:27.625Z,24.6
2018-04-17T01:01:17.912Z,24.6
2018-04-17T01:02:05.983Z,24.6
2018-04-17T01:02:57.172Z,24.6
2018-04-17T01:03:46.992Z,24.6
2018-04-17T01:04:37.029Z,24.6
2018-04-17T01:05:27.409Z,24.6
2018-04-17T01:06:17.807Z,24.6
2018-04-17T01:07:08.054Z,24.6
2018-04-17T01:07:57.810Z,24.6
2018-04-17T01:08:47.689Z,24.6
2018-04-17T01:09:38.297Z,24.6
2018-04-17T01:10:27.743Z,24.5
2018-04-17T01:11:18.956Z,24.5
2018-04-17T01:12:08.724Z,24.5
2018-04-17T01:12:58.753Z,24.5
2018-04-17T01:13:47.717Z,24.4
2018-04-17T01:14:38.951Z,24.5
2018-04-17T01:15:28.973Z,24.4
2018-04-17T01:16:18.525Z,24.4
2018-04-17T01:17:08.584Z,24.4
2018-04-17T01:17:58.599Z,24.4
2018-04-17T01:18:48.657Z,24.4
2018-04-17T01:19:39.002Z,24.4
2018-04-17T01:20:27.674Z,24.4
2018-04-17T01:21:18.599Z,24.4
2018-04-17T01:22:08.349Z,24.4
2018-04-17T01:22:59.553Z,24.4
2018-04-17T01:23:49.371Z,24.4
2018-04-17T01:24:39.724Z,24.4
2018-04-17T01:25:29.214Z,24.3
2018-04-17T01:26:19.273Z,24.3
2018-04-17T01:27:09.023Z,24.3
2018-04-17T01:28:00.233Z,24.3
2018-04-17T01:28:49.483Z,24.3
2018-04-17T01:29:39.791Z,24.3
2018-04-17T01:30:29.243Z,24.3
2018-04-17T01:31:17.985Z,24.3
2018-04-17T01:32:10.225Z,24.3
2018-04-17T01:33:00.094Z,24.3
2018-04-17T01:33:50.370Z,24.3
2018-04-17T01:34:40.349Z,24.3
2018-04-17T01:35:29.674Z,24.3
2018-04-17T01:36:19.719Z,24.2
2018-04-17T01:37:08.892Z,24.3
2018-04-17T01:37:59.598Z,24.2
2018-04-17T01:38:50.466Z,24.2
2018-04-17T01:39:39.722Z,24.2
2018-04-17T01:40:30.296Z,24.2
2018-04-17T01:41:20.344Z,24.2
2018-04-17T01:42:10.149Z,24.1
2018-04-17T01:43:00.814Z,24.1
2018-04-17T01:43:50.394Z,24.1
2018-04-17T01:44:40.863Z,24.1
2018-04-17T01:45:30.405Z,24.1
2018-04-17T01:46:19.885Z,24.1
2018-04-17T01:47:10.819Z,24.1
2018-04-17T01:48:01.208Z,24.1
2018-04-17T01:48:50.361Z,24.1
2018-04-17T01:49:41.049Z,24.1
2018-04-17T01:50:31.399Z,24.1
2018-04-17T01:51:21.142Z,24.1
2018-04-17T01:52:10.880Z,24.1
2018-04-17T01:53:01.278Z,24.1
2018-04-17T01:53:51.630Z,24.1
2018-04-17T01:54:41.935Z,24.1
2018-04-17T01:55:31.150Z,24.1
2018-04-17T01:56:21.873Z,24.1
2018-04-17T01:57:11.257Z,24.1
2018-04-17T01:58:00.583Z,24
2018-04-17T01:58:50.913Z,24.1
2018-04-17T01:59:40.403Z,24
2018-04-17T02:00:31.388Z,24
2018-04-17T02:01:21.174Z,24
2018-04-17T02:02:10.874Z,24
2018-04-17T02:03:01.791Z,24
2018-04-17T02:03:51.903Z,24
2018-04-17T02:04:41.683Z,24
2018-04-17T02:05:32.013Z,23.9
2018-04-17T02:06:21.194Z,24
2018-04-17T02:07:11.295Z,24
2018-04-17T02:08:01.906Z,23.9
2018-04-17T02:08:51.314Z,23.9
2018-04-17T02:09:41.234Z,23.9
2018-04-17T02:10:31.259Z,23.9
2018-04-17T02:11:23.418Z,23.9
2018-04-17T02:12:13.103Z,23.9
2018-04-17T02:13:03.188Z,23.9
2018-04-17T02:13:52.509Z,23.9
2018-04-17T02:14:41.838Z,23.9
2018-04-17T02:15:33.248Z,23.9
2018-04-17T02:16:23.558Z,23.9
2018-04-17T02:17:12.889Z,23.9
2018-04-17T02:18:03.424Z,23.9
2018-04-17T02:18:53.283Z,23.9
2018-04-17T02:19:43.277Z,23.9
2018-04-17T02:20:33.339Z,23.9
2018-04-17T02:21:23.081Z,23.9
2018-04-17T02:22:13.298Z,23.9
2018-04-17T02:23:03.849Z,23.9
2018-04-17T02:23:53.561Z,23.9
2018-04-17T02:24:44.454Z,23.9
2018-04-17T02:25:33.683Z,23.8
2018-04-17T02:26:24.340Z,23.8
2018-04-17T02:27:13.808Z,23.8
2018-04-17T02:28:04.199Z,23.8
2018-04-17T02:28:54.512Z,23.8
2018-04-17T02:29:44.254Z,23.8
2018-04-17T02:30:33.840Z,23.8
2018-04-17T02:31:23.914Z,23.8
2018-04-17T02:32:13.979Z,23.8
2018-04-17T02:33:04.600Z,23.8
2018-04-17T02:33:53.860Z,23.8
2018-04-17T02:34:44.395Z,23.8
2018-04-17T02:35:34.209Z,23.8
2018-04-17T02:36:24.829Z,23.8
2018-04-17T02:37:14.390Z,23.8
2018-04-17T02:38:04.964Z,23.8
2018-04-17T02:38:55.075Z,23.8
2018-04-17T02:39:44.531Z,23.8
2018-04-17T02:40:34.597Z,23.8
2018-04-17T02:41:25.169Z,23.8
2018-04-17T02:42:14.988Z,23.8
2018-04-17T02:43:05.632Z,23.8
2018-04-17T02:43:55.096Z,23.8
2018-04-17T02:44:45.572Z,23.7
2018-04-17T02:45:34.701Z,23.8
2018-04-17T02:46:25.579Z,23.7
2018-04-17T02:47:15.312Z,23.8
2018-04-17T02:48:04.661Z,23.7
2018-04-17T02:48:55.176Z,23.7
2018-04-17T02:49:45.530Z,23.7
2018-04-17T02:50:35.341Z,23.7
2018-04-17T02:51:26.248Z,23.7
2018-04-17T02:52:16.257Z,23.7
2018-04-17T02:53:05.206Z,23.7
2018-04-17T02:53:56.398Z,23.7
2018-04-17T02:54:46.583Z,23.7
2018-04-17T02:55:36.803Z,23.7
2018-04-17T02:56:25.552Z,23.7
2018-04-17T02:57:16.079Z,23.7
2018-04-17T02:58:05.907Z,23.7
2018-04-17T02:58:55.119Z,23.6
2018-04-17T02:59:45.781Z,23.7
2018-04-17T03:00:36.339Z,23.7
2018-04-17T03:01:26.196Z,23.6
2018-04-17T03:02:15.683Z,23.6
2018-04-17T03:03:06.171Z,23.6
2018-04-17T03:03:55.871Z,23.6
2018-04-17T03:04:46.571Z,23.6
2018-04-17T03:05:36.820Z,23.6
2018-04-17T03:06:26.326Z,23.6
2018-04-17T03:07:16.620Z,23.6
2018-04-17T03:08:06.181Z,23.6
2018-04-17T03:08:56.228Z,23.6
2018-04-17T03:09:46.300Z,23.6
2018-04-17T03:10:36.921Z,23.6
2018-04-17T03:11:26.987Z,23.6
2018-04-17T03:12:16.154Z,23.6
2018-04-17T03:13:06.760Z,23.6
2018-04-17T03:13:57.107Z,23.6
2018-04-17T03:14:46.962Z,23.6
2018-04-17T03:15:37.279Z,23.6
2018-04-17T03:16:27.322Z,23.6
2018-04-17T03:17:17.644Z,23.6
2018-04-17T03:18:07.507Z,23.6
2018-04-17T03:18:58.222Z,23.6
2018-04-17T03:19:47.629Z,23.6
2018-04-17T03:20:36.784Z,23.6
2018-04-17T03:21:28.707Z,23.6
2018-04-17T03:22:18.222Z,23.6
2018-04-17T03:23:08.258Z,23.6
2018-04-17T03:23:58.428Z,23.6
2018-04-17T03:24:48.745Z,23.6
2018-04-17T03:25:38.346Z,23.6
2018-04-17T03:26:27.972Z,23.6
2018-04-17T03:27:18.409Z,23.6
2018-04-17T03:28:08.480Z,23.6
2018-04-17T03:28:58.190Z,23.6
2018-04-17T03:29:48.546Z,23.6
2018-04-17T03:30:38.006Z,23.6
2018-04-17T03:31:28.670Z,23.5
2018-04-17T03:32:17.953Z,23.6
2018-04-17T03:33:08.241Z,23.6
2018-04-17T03:33:58.664Z,23.6
2018-04-17T03:34:48.338Z,23.6
2018-04-17T03:35:39.503Z,23.5
2018-04-17T03:36:29.319Z,23.5
2018-04-17T03:37:19.718Z,23.5
2018-04-17T03:38:09.162Z,23.5
2018-04-17T03:38:59.524Z,23.5
2018-04-17T03:39:50.058Z,23.5
2018-04-17T03:41:38.105Z,23.4
2018-04-17T03:42:28.456Z,23.5
2018-04-17T03:43:17.886Z,23.5
2018-04-17T03:44:08.030Z,23.5
2018-04-17T03:44:58.663Z,23.5
2018-04-17T03:46:02.233Z,23.5
2018-04-17T03:46:38.275Z,23.5
2018-04-17T03:47:28.224Z,23.5
2018-04-17T03:48:18.794Z,23.5
2018-04-17T03:49:07.284Z,23.4
2018-04-17T03:49:58.530Z,23.5
2018-04-17T03:50:48.615Z,23.5
2018-04-17T03:51:53.026Z,23.4
2018-04-17T03:52:28.346Z,23.5
2018-04-17T03:53:19.301Z,23.5
2018-04-17T03:54:08.477Z,23.5
2018-04-17T03:55:12.821Z,23.4
2018-04-17T03:55:48.100Z,23.4
2018-04-17T03:56:39.716Z,23.4
2018-04-17T03:57:29.338Z,23.5
2018-04-17T03:58:17.836Z,23.5
2018-04-17T03:59:38.256Z,23.4
2018-04-17T03:59:59.372Z,23.4
2018-04-17T04:01:03.941Z,23.4
2018-04-17T04:01:54.373Z,23.4
2018-04-17T04:02:28.693Z,23.5
2018-04-17T04:03:18.999Z,23.4
2018-04-17T04:04:07.862Z,23.4
2018-04-17T04:04:59.910Z,23.4
2018-04-17T04:05:49.799Z,23.4
2018-04-17T04:06:39.525Z,23.4
2018-04-17T04:07:29.514Z,23.4
2018-04-17T04:08:20.129Z,23.4
2018-04-17T04:09:09.426Z,23.4
2018-04-17T04:09:59.512Z,23.4
2018-04-17T04:10:49.842Z,23.4
2018-04-17T04:11:40.233Z,23.4
2018-04-17T04:12:45.165Z,23.4
2018-04-17T04:13:19.417Z,23.4
2018-04-17T04:14:25.017Z,23.4
2018-04-17T04:14:59.653Z,23.4
2018-04-17T04:15:49.459Z,23.4
2018-04-17T04:16:54.893Z,23.4
2018-04-17T04:17:45.152Z,23.4
2018-04-17T04:18:36.007Z,23.4
2018-04-17T04:19:25.023Z,23.4
2018-04-17T04:20:01.439Z,23.4
2018-04-17T04:20:50.292Z,23.4
2018-04-17T04:21:40.389Z,23.4
2018-04-17T04:22:45.585Z,23.4
2018-04-17T04:23:20.757Z,23.4
2018-04-17T04:24:27.129Z,23.4
2018-04-17T04:25:01.659Z,23.4
2018-04-17T04:26:06.216Z,23.4
2018-04-17T04:26:41.221Z,23.4
2018-04-17T04:27:32.207Z,23.4
2018-04-17T04:28:21.562Z,23.4
2018-04-17T04:29:11.073Z,23.4
2018-04-17T04:30:01.809Z,23.4
2018-04-17T04:30:51.457Z,23.4
2018-04-17T04:31:41.141Z,23.4
2018-04-17T04:32:31.209Z,23.4
2018-04-17T04:33:21.540Z,23.4
2018-04-17T04:34:10.973Z,23.3
2018-04-17T04:35:01.208Z,23.4
2018-04-17T04:35:51.752Z,23.4
2018-04-17T04:36:56.172Z,23.4
2018-04-17T04:37:32.038Z,23.4
2018-04-17T04:38:21.865Z,23.4
2018-04-17T04:39:11.507Z,23.4
2018-04-17T04:40:51.701Z,23.4
2018-04-17T04:41:41.680Z,23.4
2018-04-17T04:42:31.448Z,23.4
2018-04-17T04:43:22.691Z,23.4
2018-04-17T04:44:27.783Z,23.4
2018-04-17T04:45:03.034Z,23.4
2018-04-17T04:45:52.286Z,23.4
2018-04-17T04:46:42.222Z,23.3
2018-04-17T04:47:31.732Z,23.3
2018-04-17T04:48:23.190Z,23.3
2018-04-17T04:49:10.503Z,23.3
2018-04-17T04:50:02.200Z,23.3
2018-04-17T04:51:07.755Z,23.3
2018-04-17T04:51:42.868Z,23.3
2018-04-17T04:52:32.992Z,23.3
2018-04-17T04:53:22.432Z,23.3
2018-04-17T04:54:13.075Z,23.3
2018-04-17T04:55:02.352Z,23.3
2018-04-17T04:56:07.052Z,23.3
2018-04-17T04:56:42.855Z,23.2
2018-04-17T04:57:33.596Z,23.3
2018-04-17T04:58:37.705Z,23.3
2018-04-17T04:59:12.105Z,23.2
2018-04-17T05:00:02.535Z,23.3
2018-04-17T05:00:52.500Z,23.2
2018-04-17T05:01:43.422Z,23.3
2018-04-17T05:02:33.310Z,23.2
2018-04-17T05:03:23.282Z,23.2
2018-04-17T05:04:13.834Z,23.2
2018-04-17T05:05:18.123Z,23.2
2018-04-17T05:05:53.954Z,23.2
2018-04-17T05:06:43.826Z,23.2
2018-04-17T05:07:33.896Z,23.2
2018-04-17T05:08:24.447Z,23.2
2018-04-17T05:09:14.139Z,23.2
2018-04-17T05:10:18.451Z,23.2
2018-04-17T05:10:53.930Z,23.1
2018-04-17T05:11:43.493Z,23.2
2018-04-17T05:12:33.433Z,23.2
2018-04-17T05:13:23.746Z,23.1
2018-04-17T05:14:14.618Z,23.2
2018-04-17T05:15:05.168Z,23.1
2018-04-17T05:15:54.774Z,23.1
2018-04-17T05:16:45.138Z,23.2
2018-04-17T05:17:49.300Z,23.1
2018-04-17T05:18:23.747Z,23.1
2018-04-17T05:19:14.664Z,23.1
2018-04-17T05:20:03.649Z,23.1
2018-04-17T05:20:55.167Z,23.1
2018-04-17T05:21:45.534Z,23.1
2018-04-17T05:22:35.457Z,23.1
2018-04-17T05:23:57.951Z,23.1
2018-04-17T05:24:15.084Z,23.1
2018-04-17T05:25:20.377Z,23.1
2018-04-17T05:25:55.950Z,23.1
2018-04-17T05:26:45.994Z,23.1
2018-04-17T05:27:35.001Z,23.1
2018-04-17T05:28:26.158Z,23.1
2018-04-17T05:29:15.432Z,23.1
2018-04-17T05:30:07.084Z,23.1
2018-04-17T05:30:56.391Z,23.1
2018-04-17T05:31:46.653Z,23.1
2018-04-17T05:32:35.611Z,23.1
2018-04-17T05:33:57.405Z,23
2018-04-17T05:34:16.333Z,23
2018-04-17T05:35:20.419Z,23
2018-04-17T05:35:56.499Z,23
2018-04-17T05:36:46.921Z,23
2018-04-17T05:37:37.058Z,23
2018-04-17T05:38:41.096Z,23
2018-04-17T05:39:16.758Z,23
2018-04-17T05:40:07.521Z,23
2018-04-17T05:40:57.109Z,22.9
2018-04-17T05:41:46.479Z,23
2018-04-17T05:42:37.017Z,23
2018-04-17T05:43:26.771Z,22.9
2018-04-17T05:44:17.066Z,22.9
2018-04-17T05:45:57.475Z,22.9
2018-04-17T05:46:47.661Z,22.9
2018-04-17T05:47:38.420Z,22.9
2018-04-17T05:48:27.460Z,22.9
2018-04-17T05:49:32.095Z,22.9
2018-04-17T05:50:07.072Z,22.9
2018-04-17T05:50:57.837Z,22.9
2018-04-17T05:51:48.155Z,22.9
2018-04-17T05:52:38.012Z,22.9
2018-04-17T05:53:27.895Z,22.9
2018-04-17T05:54:18.465Z,22.9
2018-04-17T05:55:08.700Z,22.9
2018-04-17T05:56:13.119Z,22.9
2018-04-17T05:56:48.353Z,22.9
2018-04-17T05:57:38.450Z,22.9
2018-04-17T05:58:28.742Z,22.9
2018-04-17T05:59:32.927Z,22.9
2018-04-17T06:00:22.992Z,22.9
2018-04-17T06:00:58.116Z,22.8
2018-04-17T06:02:03.066Z,22.8
2018-04-17T06:02:38.194Z,22.8
2018-04-17T06:03:28.585Z,22.9
2018-04-17T06:04:18.089Z,22.8
2018-04-17T06:05:08.840Z,22.9
2018-04-17T06:06:13.584Z,22.8
2018-04-17T06:06:48.329Z,22.8
2018-04-17T06:07:38.346Z,22.8
2018-04-17T06:08:27.318Z,22.8
2018-04-17T06:09:19.169Z,22.8
2018-04-17T06:10:08.492Z,22.8
2018-04-17T06:10:58.674Z,22.8
2018-04-17T06:11:49.028Z,22.8
2018-04-17T06:12:53.419Z,22.8
2018-04-17T06:13:29.356Z,22.8
2018-04-17T06:14:19.406Z,22.8
2018-04-17T06:15:09.396Z,22.8
2018-04-17T06:15:58.473Z,22.8
2018-04-17T06:17:20.623Z,22.8
2018-04-17T06:17:39.041Z,22.8
2018-04-17T06:18:27.784Z,22.8
2018-04-17T06:19:19.278Z,22.8
2018-04-17T06:20:08.785Z,22.8
2018-04-17T06:20:59.248Z,22.8
2018-04-17T06:21:48.920Z,22.8
2018-04-17T06:22:39.550Z,22.8
2018-04-17T06:23:45.213Z,22.8
2018-04-17T06:24:20.155Z,22.8
2018-04-17T06:25:10.430Z,22.8
2018-04-17T06:25:59.893Z,22.8
2018-04-17T06:26:50.243Z,22.8
2018-04-17T06:27:39.927Z,22.7
2018-04-17T06:28:28.653Z,22.8
2018-04-17T06:29:19.188Z,22.8
2018-04-17T06:30:09.961Z,22.8
2018-04-17T06:31:14.807Z,22.8
2018-04-17T06:32:04.113Z,22.8
2018-04-17T06:32:40.060Z,22.8
2018-04-17T06:33:29.963Z,22.8
2018-04-17T06:34:20.692Z,22.8
2018-04-17T06:35:10.858Z,22.8
2018-04-17T06:36:00.657Z,22.8
2018-04-17T06:36:50.969Z,22.8
2018-04-17T06:37:41.162Z,22.8
2018-04-17T06:38:46.529Z,22.8
2018-04-17T06:39:21.082Z,22.8
2018-04-17T06:40:11.086Z,22.8
2018-04-17T06:41:01.147Z,22.8
2018-04-17T06:41:52.122Z,22.7
2018-04-17T06:42:40.664Z,22.7
2018-04-17T06:43:32.302Z,22.8
2018-04-17T06:44:22.390Z,22.7
2018-04-17T06:45:10.621Z,22.8
2018-04-17T06:46:02.187Z,22.7
2018-04-17T06:46:52.081Z,22.8
2018-04-17T06:47:58.248Z,22.8
2018-04-17T06:48:46.274Z,22.7
2018-04-17T06:49:23.419Z,22.8
2018-04-17T06:50:11.781Z,22.7
2018-04-17T06:51:01.847Z,22.7
2018-04-17T06:51:52.263Z,22.8
2018-04-17T06:52:42.989Z,22.8
2018-04-17T06:53:32.345Z,22.8
2018-04-17T06:54:22.091Z,22.8
2018-04-17T06:55:12.781Z,22.8
2018-04-17T06:56:01.294Z,22.8
2018-04-17T06:56:52.873Z,22.8
2018-04-17T06:58:14.819Z,22.7
2018-04-17T06:58:31.628Z,22.8
2018-04-17T06:59:23.133Z,22.7
2018-04-17T07:00:13.388Z,22.8
2018-04-17T07:01:17.832Z,22.7
2018-04-17T07:02:08.391Z,22.8
2018-04-17T07:02:42.750Z,22.8
2018-04-17T07:03:32.600Z,22.8
2018-04-17T07:04:22.724Z,22.8
2018-04-17T07:05:13.984Z,22.7
2018-04-17T07:06:03.666Z,22.8
2018-04-17T07:06:54.028Z,22.8
2018-04-17T07:07:44.385Z,22.8
2018-04-17T07:08:32.829Z,22.8
2018-04-17T07:09:24.089Z,22.7
2018-04-17T07:10:13.822Z,22.8
2018-04-17T07:11:03.341Z,22.8
2018-04-17T07:11:53.021Z,22.8
2018-04-17T07:12:44.900Z,22.8
2018-04-17T07:13:32.411Z,22.7
2018-04-17T07:14:23.544Z,22.7
2018-04-17T07:15:13.880Z,22.8
2018-04-17T07:16:04.274Z,22.7
2018-04-17T07:16:54.790Z,22.7
2018-04-17T07:17:43.097Z,22.7
2018-04-17T07:18:33.415Z,22.7
2018-04-17T07:19:24.331Z,22.7
2018-04-17T07:20:14.380Z,22.7
2018-04-17T07:21:04.429Z,22.7
2018-04-17T07:22:09.093Z,22.7
2018-04-17T07:22:44.879Z,22.8
2018-04-17T07:23:34.362Z,22.7
2018-04-17T07:24:24.087Z,22.7
2018-04-17T07:25:15.026Z,22.7
2018-04-17T07:26:05.034Z,22.7
2018-04-17T07:26:54.183Z,22.7
2018-04-17T07:27:44.319Z,22.7
2018-04-17T07:28:35.031Z,22.8
2018-04-17T07:29:54.443Z,22.7
2018-04-17T07:30:14.504Z,22.7
2018-04-17T07:31:04.950Z,22.7
2018-04-17T07:31:54.361Z,22.7
2018-04-17T07:32:45.460Z,22.6
2018-04-17T07:33:36.048Z,22.6
2018-04-17T07:34:39.877Z,22.7
2018-04-17T07:35:15.503Z,22.7
2018-04-17T07:36:05.005Z,22.6
2018-04-17T07:36:55.818Z,22.6
2018-04-17T07:37:45.461Z,22.6
2018-04-17T07:38:35.852Z,22.6
2018-04-17T07:39:25.565Z,22.6
2018-04-17T07:40:16.157Z,22.6
2018-04-17T07:41:06.492Z,22.6
2018-04-17T07:41:56.565Z,22.6
2018-04-17T07:42:46.680Z,22.6
2018-04-17T07:43:52.085Z,22.6
2018-04-17T07:44:26.758Z,22.6
2018-04-17T07:45:30.122Z,22.6
2018-04-17T07:46:06.597Z,22.6
2018-04-17T07:46:56.864Z,22.6
2018-04-17T07:47:45.912Z,22.6
2018-04-17T07:48:37.490Z,22.6
2018-04-17T07:49:41.012Z,22.6
2018-04-17T07:50:16.136Z,22.6
2018-04-17T07:51:06.219Z,22.6
2018-04-17T07:51:56.448Z,22.6
2018-04-17T07:52:47.792Z,22.6
2018-04-17T07:53:37.274Z,22.6
2018-04-17T07:54:27.089Z,22.6
2018-04-17T07:55:17.296Z,22.6
2018-04-17T07:56:07.938Z,22.6
2018-04-17T07:56:57.079Z,22.6
2018-04-17T07:57:47.789Z,22.6
2018-04-17T07:58:37.634Z,22.6
2018-04-17T07:59:27.595Z,22.6
2018-04-17T08:00:16.536Z,22.6
2018-04-17T08:01:07.484Z,22.6
2018-04-17T08:01:58.359Z,22.6
2018-04-17T08:02:47.868Z,22.5
2018-04-17T08:03:37.073Z,22.5
2018-04-17T08:04:27.325Z,22.6
2018-04-17T08:05:17.541Z,22.5
2018-04-17T08:06:08.031Z,22.6
2018-04-17T08:07:12.574Z,22.6
2018-04-17T08:07:48.253Z,22.6
2018-04-17T08:08:38.532Z,22.5
2018-04-17T08:09:27.288Z,22.5
2018-04-17T08:10:17.628Z,22.5
2018-04-17T08:11:07.688Z,22.5
2018-04-17T08:11:59.560Z,22.5
2018-04-17T08:12:48.029Z,22.5
2018-04-17T08:13:38.178Z,22.5
2018-04-17T08:14:27.710Z,22.5
2018-04-17T08:15:31.795Z,22.6
2018-04-17T08:16:22.788Z,22.5
2018-04-17T08:16:58.111Z,22.5
2018-04-17T08:17:49.488Z,22.5
2018-04-17T08:18:38.847Z,22.5
2018-04-17T08:19:28.755Z,22.6
2018-04-17T08:20:18.895Z,22.5
2018-04-17T08:21:09.644Z,22.5
2018-04-17T08:21:59.065Z,22.5
2018-04-17T08:22:48.591Z,22.5
2018-04-17T08:23:53.239Z,22.5
2018-04-17T08:24:29.817Z,22.5
2018-04-17T08:25:34.542Z,22.5
2018-04-17T08:26:09.658Z,22.5
2018-04-17T08:27:28.782Z,22.4
2018-04-17T08:27:49.791Z,22.5
2018-04-17T08:28:38.878Z,22.5
2018-04-17T08:29:44.629Z,22.5
2018-04-17T08:30:34.719Z,22.5
2018-04-17T08:31:08.664Z,22.4
2018-04-17T08:32:00.617Z,22.5
2018-04-17T08:32:49.950Z,22.5
2018-04-17T08:33:39.863Z,22.5
2018-04-17T08:34:30.054Z,22.4
2018-04-17T08:35:20.043Z,22.5
2018-04-17T08:36:09.683Z,22.5
2018-04-17T08:37:00.369Z,22.4
2018-04-17T08:37:50.356Z,22.5
2018-04-17T08:38:41.209Z,22.4
2018-04-17T08:39:30.559Z,22.5
2018-04-17T08:41:10.554Z,22.4
2018-04-17T08:42:00.658Z,22.4
2018-04-17T08:42:50.958Z,22.5
2018-04-17T08:43:40.338Z,22.5
2018-04-17T08:44:31.366Z,22.4
2018-04-17T08:45:21.434Z,22.5
2018-04-17T08:46:11.884Z,22.4
2018-04-17T08:47:33.038Z,22.5
2018-04-17T08:47:51.286Z,22.4
2018-04-17T08:48:41.080Z,22.4
2018-04-17T08:49:30.486Z,22.4
2018-04-17T08:50:21.751Z,22.4
2018-04-17T08:51:11.254Z,22.4
2018-04-17T08:52:01.103Z,22.4
2018-04-17T08:52:51.185Z,22.4
2018-04-17T08:53:41.408Z,22.4
2018-04-17T08:54:32.935Z,22.4
2018-04-17T08:55:20.798Z,22.4
2018-04-17T08:56:11.592Z,22.4
2018-04-17T08:57:01.807Z,22.4
2018-04-17T08:57:51.955Z,22.4
2018-04-17T08:59:47.578Z,22.4
2018-04-17T09:00:22.711Z,22.4
2018-04-17T09:01:27.469Z,22.4
2018-04-17T09:02:01.638Z,22.4
2018-04-17T09:03:47.389Z,22.4
2018-04-17T09:04:36.484Z,22.4
2018-04-17T09:05:27.948Z,22.4
2018-04-17T09:06:48.985Z,22.4
2018-04-17T09:07:07.716Z,22.4
2018-04-17T09:07:56.773Z,22.4
2018-04-17T09:08:47.747Z,22.4
2018-04-17T09:09:37.452Z,22.4
2018-04-17T09:10:27.502Z,22.4
2018-04-17T09:11:18.300Z,22.4
2018-04-17T09:12:07.904Z,22.4
2018-04-17T09:12:56.182Z,22.4
2018-04-17T09:13:47.786Z,22.4
2018-04-17T09:14:37.022Z,22.4
2018-04-17T09:15:42.236Z,22.4
2018-04-17T09:16:17.666Z,22.4
2018-04-17T09:17:08.006Z,22.4
2018-04-17T09:17:57.922Z,22.4
2018-04-17T09:18:47.832Z,22.4
2018-04-17T09:19:38.767Z,22.4
2018-04-17T09:20:27.454Z,22.4
2018-04-17T09:21:17.151Z,22.4
2018-04-17T09:23:26.962Z,22.4
2018-04-17T09:24:03.635Z,22.4
2018-04-17T09:24:36.791Z,22.4
2018-04-17T09:25:42.613Z,22.4
2018-04-17T09:26:18.616Z,22.4
2018-04-17T09:27:07.764Z,22.4
2018-04-17T09:27:58.568Z,22.4
2018-04-17T09:28:49.161Z,22.4
2018-04-17T09:29:39.709Z,22.4
2018-04-17T09:30:43.966Z,22.4
2018-04-17T09:31:18.759Z,22.4
2018-04-17T09:32:09.725Z,22.4
2018-04-17T09:32:59.842Z,22.4
2018-04-17T09:33:49.565Z,22.4
2018-04-17T09:34:54.281Z,22.4
2018-04-17T09:35:29.119Z,22.4
2018-04-17T09:36:20.176Z,22.4
2018-04-17T09:37:09.558Z,22.4
2018-04-17T09:38:00.048Z,22.4
2018-04-17T09:39:04.330Z,22.4
2018-04-17T09:39:38.857Z,22.4
2018-04-17T09:40:44.488Z,22.4
2018-04-17T09:41:20.208Z,22.4
2018-04-17T09:42:09.964Z,22.4
2018-04-17T09:43:00.083Z,22.4
2018-04-17T09:43:50.497Z,22.4
2018-04-17T09:44:40.528Z,22.4
2018-04-17T09:45:30.045Z,22.4
2018-04-17T09:46:19.920Z,22.4
2018-04-17T09:47:10.798Z,22.4
2018-04-17T09:48:00.045Z,22.4
2018-04-17T09:48:50.662Z,22.4
2018-04-17T09:49:40.567Z,22.4
2018-04-17T09:50:45.723Z,22.4
2018-04-17T09:51:20.839Z,22.4
2018-04-17T09:52:09.072Z,22.4
2018-04-17T09:53:01.322Z,22.4
2018-04-17T09:53:50.566Z,22.4
2018-04-17T09:54:40.854Z,22.4
2018-04-17T09:55:30.674Z,22.4
2018-04-17T09:56:20.584Z,22.4
2018-04-17T09:57:11.792Z,22.4
2018-04-17T09:58:15.559Z,22.4
2018-04-17T09:59:20.598Z,22.4
2018-04-17T09:59:41.192Z,22.4
2018-04-17T10:00:45.082Z,22.4
2018-04-17T10:01:20.546Z,22.4
2018-04-17T10:02:11.939Z,22.4
2018-04-17T10:03:01.353Z,22.4
2018-04-17T10:03:52.067Z,22.4
2018-04-17T10:04:41.780Z,22.4
2018-04-17T10:06:21.306Z,22.4
2018-04-17T10:07:11.751Z,22.4
2018-04-17T10:08:02.378Z,22.4
2018-04-17T10:08:53.547Z,22.4
2018-04-17T10:10:11.004Z,22.4
2018-04-17T10:10:46.718Z,22.4
2018-04-17T10:11:22.565Z,22.4
2018-04-17T10:12:12.948Z,22.4
2018-04-17T10:13:02.580Z,22.4
2018-04-17T10:13:51.623Z,22.4
2018-04-17T10:14:42.096Z,22.4
2018-04-17T10:15:32.172Z,22.4
2018-04-17T10:16:21.996Z,22.4
2018-04-17T10:17:12.070Z,22.4
2018-04-17T10:18:18.345Z,22.5
2018-04-17T10:18:51.928Z,22.4
2018-04-17T10:19:41.861Z,22.4
2018-04-17T10:20:32.725Z,22.4
2018-04-17T10:21:23.005Z,22.4
2018-04-17T10:22:13.523Z,22.4
2018-04-17T10:23:02.622Z,22.4
2018-04-17T10:23:53.165Z,22.4
2018-04-17T10:24:43.271Z,22.4
2018-04-17T10:25:33.265Z,22.4
2018-04-17T10:26:23.550Z,22.4
2018-04-17T10:27:13.412Z,22.5
2018-04-17T10:28:18.594Z,22.5
2018-04-17T10:29:07.895Z,22.5
2018-04-17T10:29:44.019Z,22.4
2018-04-17T10:30:33.975Z,22.5
2018-04-17T10:31:37.574Z,22.5
2018-04-17T10:32:13.620Z,22.4
2018-04-17T10:33:18.668Z,22.5
2018-04-17T10:34:30.921Z,22.5
2018-04-17T10:35:21.747Z,22.5
2018-04-17T10:36:12.088Z,22.5
2018-04-17T10:37:01.637Z,22.4
2018-04-17T10:37:51.402Z,22.5
2018-04-17T10:38:42.289Z,22.5
2018-04-17T10:39:31.278Z,22.4
2018-04-17T10:40:22.197Z,22.5
2018-04-17T10:41:11.419Z,22.5
2018-04-17T10:42:02.021Z,22.5
2018-04-17T10:42:51.538Z,22.5
2018-04-17T10:43:41.845Z,22.5
2018-04-17T10:44:31.904Z,22.5
2018-04-17T10:45:19.988Z,22.6
2018-04-17T10:46:11.315Z,22.5
2018-04-17T10:47:01.646Z,22.5
2018-04-17T10:47:50.160Z,22.5
2018-04-17T10:48:40.567Z,22.5
2018-04-17T10:49:30.216Z,22.5
2018-04-17T10:50:21.606Z,22.6
2018-04-17T10:51:12.424Z,22.5
2018-04-17T10:52:03.030Z,22.6
2018-04-17T10:52:52.288Z,22.6
2018-04-17T10:53:43.231Z,22.6
2018-04-17T10:54:32.396Z,22.6
2018-04-17T10:55:23.165Z,22.6
2018-04-17T10:56:11.730Z,22.6
2018-04-17T10:57:02.618Z,22.6
2018-04-17T10:57:52.777Z,22.6
2018-04-17T10:58:43.583Z,22.6
2018-04-17T10:59:32.188Z,22.6
2018-04-17T11:00:23.130Z,22.6
2018-04-17T11:01:13.492Z,22.6
2018-04-17T11:02:03.206Z,22.6
2018-04-17T11:02:53.572Z,22.6
2018-04-17T11:03:43.371Z,22.6
2018-04-17T11:04:33.985Z,22.6
2018-04-17T11:05:23.633Z,22.6
2018-04-17T11:06:13.871Z,22.6
2018-04-17T11:07:03.568Z,22.6
2018-04-17T11:07:54.507Z,22.6
2018-04-17T11:08:43.452Z,22.6
2018-04-17T11:09:33.381Z,22.6
2018-04-17T11:10:24.455Z,22.6
2018-04-17T11:11:14.232Z,22.6
2018-04-17T11:12:04.580Z,22.6
2018-04-17T11:12:54.937Z,22.6
2018-04-17T11:13:43.291Z,22.6
2018-04-17T11:14:34.849Z,22.6
2018-04-17T11:15:24.547Z,22.6